Time;durP1;ratioP1;P1;durP2;ratioP2;P2;SDS_P1;SDS_P2;PMS_P1;PMS_P2;Temp;Humidity;BMP_temperature;BMP_pressure;BME280_temperature;BME280_humidity;BME280_pressure;Samples;Min_cycle;Max_cycle;Signal;HPM_P1;HPM_P2
2023/05/19 00:00:57;;;;;;;14.52;4.70;;;8.10;99.90;;;;;;5054722;28;20504;-68
2023/05/19 00:03:26;;;;;;;12.73;4.65;;;8.10;99.90;;;;;;5053987;28;20044;-67
2023/05/19 00:05:54;;;;;;;13.20;5.18;;;8.10;99.90;;;;;;5053147;28;20053;-68
2023/05/19 00:08:23;;;;;;;12.35;4.70;;;8.10;99.90;;;;;;5054233;28;20067;-66
2023/05/19 00:10:50;;;;;;;16.02;4.80;;;8.20;99.90;;;;;;5053763;28;20048;-67
2023/05/19 00:13:18;;;;;;;14.18;4.88;;;8.20;99.90;;;;;;5070199;28;20052;-67
2023/05/19 00:15:45;;;;;;;12.88;5.10;;;8.20;99.90;;;;;;5072534;28;20056;-67
2023/05/19 00:18:13;;;;;;;9.52;4.20;;;8.20;99.90;;;;;;5053790;28;20089;-68
2023/05/19 00:20:41;;;;;;;12.98;5.15;;;8.10;99.90;;;;;;5072219;28;20040;-67
2023/05/19 00:23:08;;;;;;;12.52;4.10;;;8.20;99.90;;;;;;5054534;28;20045;-67
2023/05/19 00:25:35;;;;;;;15.02;4.30;;;8.10;99.90;;;;;;5053688;28;20052;-68
2023/05/19 00:28:02;;;;;;;16.35;4.68;;;8.10;99.90;;;;;;5054523;28;20133;-68
2023/05/19 00:30:29;;;;;;;12.07;4.05;;;8.10;99.90;;;;;;5070008;28;20111;-68
2023/05/19 00:32:56;;;;;;;18.50;4.82;;;8.10;99.90;;;;;;5054354;28;20048;-68
2023/05/19 00:35:24;;;;;;;11.70;4.30;;;8.10;99.90;;;;;;5070047;28;20492;-67
2023/05/19 00:37:52;;;;;;;11.80;4.10;;;8.10;99.90;;;;;;5053205;28;20064;-66
2023/05/19 00:40:19;;;;;;;19.27;5.32;;;8.10;99.90;;;;;;5054301;28;20114;-67
2023/05/19 00:42:46;;;;;;;17.38;4.40;;;8.10;99.90;;;;;;5053809;28;20082;-68
2023/05/19 00:45:13;;;;;;;9.43;3.85;;;8.40;99.90;;;;;;5053655;28;20109;-67
2023/05/19 00:47:40;;;;;;;13.20;4.40;;;8.10;99.90;;;;;;5054067;28;20068;-67
2023/05/19 00:50:07;;;;;;;8.52;3.97;;;9.00;99.90;;;;;;5072145;28;20052;-67
2023/05/19 00:52:34;;;;;;;10.85;4.20;;;8.10;99.90;;;;;;5071481;28;20048;-68
2023/05/19 00:55:02;;;;;;;14.27;4.35;;;8.20;99.90;;;;;;5054069;28;20114;-67
2023/05/19 00:57:30;;;;;;;14.50;4.43;;;8.10;99.90;;;;;;5051948;28;20044;-67
2023/05/19 00:59:57;;;;;;;14.25;4.72;;;8.10;99.90;;;;;;5053398;28;20139;-67
2023/05/19 01:02:24;;;;;;;12.13;4.13;;;8.00;99.90;;;;;;5053998;28;20048;-67
2023/05/19 01:04:52;;;;;;;10.45;4.15;;;8.00;99.90;;;;;;5071802;28;20094;-68
2023/05/19 01:07:19;;;;;;;11.68;4.55;;;8.10;99.90;;;;;;5052921;28;20085;-67
2023/05/19 01:09:47;;;;;;;15.55;3.60;;;8.00;99.90;;;;;;5069772;28;20124;-68
2023/05/19 01:12:16;;;;;;;11.48;4.35;;;8.00;99.90;;;;;;5053815;28;20049;-68
2023/05/19 01:14:44;;;;;;;9.73;3.72;;;8.00;99.90;;;;;;5071332;28;20056;-68
2023/05/19 01:17:19;;;;;;;13.90;4.13;;;8.00;99.90;;;;;;5071512;28;20036;-67
2023/05/19 01:20:03;;;;;;;11.13;4.10;;;7.90;99.90;;;;;;5054228;28;20067;-67
2023/05/19 01:23:15;;;;;;;11.25;3.63;;;8.00;99.90;;;;;;5056339;28;20052;-68
2023/05/19 01:26:22;;;;;;;11.48;4.45;;;7.90;99.90;;;;;;5021382;28;20055;-67
2023/05/19 01:29:15;;;;;;;12.65;3.58;;;7.90;99.90;;;;;;5041460;28;20052;-68
2023/05/19 01:31:46;;;;;;;9.75;3.80;;;7.90;99.90;;;;;;5056752;28;20060;-67
2023/05/19 01:34:16;;;;;;;11.15;4.10;;;7.90;99.90;;;;;;5056965;28;20418;-67
2023/05/19 01:36:47;;;;;;;14.95;5.00;;;7.80;99.90;;;;;;5057290;28;20056;-67
2023/05/19 01:39:14;;;;;;;10.40;4.03;;;7.90;99.90;;;;;;5075516;28;20143;-68
2023/05/19 01:41:42;;;;;;;11.00;4.57;;;7.90;99.90;;;;;;5056808;28;20455;-69
2023/05/19 01:44:10;;;;;;;15.50;4.25;;;7.80;99.90;;;;;;5057367;28;20476;-69
2023/05/19 01:46:37;;;;;;;15.63;4.28;;;7.80;99.90;;;;;;5075015;28;20174;-69
2023/05/19 01:49:07;;;;;;;11.05;4.30;;;7.80;99.90;;;;;;5056715;28;20049;-69
2023/05/19 01:51:34;;;;;;;16.55;4.20;;;7.80;99.90;;;;;;5056879;28;20055;-69
2023/05/19 01:54:00;;;;;;;12.60;4.53;;;7.80;99.90;;;;;;5075274;28;20121;-68
2023/05/19 01:56:38;;;;;;;14.45;4.22;;;7.80;99.90;;;;;;5074398;28;20048;-68
2023/05/19 01:59:15;;;;;;;10.43;4.38;;;7.80;99.90;;;;;;5072767;28;20040;-69
2023/05/19 02:01:52;;;;;;;20.73;4.95;;;7.90;99.90;;;;;;5073175;28;20051;-68
2023/05/19 02:04:31;;;;;;;17.35;4.38;;;7.80;99.90;;;;;;5056254;28;20124;-69
2023/05/19 02:07:04;;;;;;;14.05;4.05;;;7.80;99.90;;;;;;5055578;28;20052;-68
2023/05/19 02:09:39;;;;;;;10.95;4.55;;;7.80;99.90;;;;;;5055049;28;20539;-68
2023/05/19 02:12:14;;;;;;;12.52;4.13;;;7.70;99.90;;;;;;5055415;28;20056;-68
2023/05/19 02:14:48;;;;;;;16.40;4.65;;;7.80;99.90;;;;;;5055656;28;20492;-69
2023/05/19 02:17:17;;;;;;;20.02;5.00;;;7.80;99.90;;;;;;5055096;28;20487;-68
2023/05/19 02:19:47;;;;;;;14.48;4.53;;;7.80;99.90;;;;;;5072932;28;20078;-68
2023/05/19 02:22:13;;;;;;;10.80;3.95;;;7.70;99.90;;;;;;5056277;28;20055;-68
2023/05/19 02:24:43;;;;;;;17.38;4.90;;;8.60;99.90;;;;;;5055988;28;20484;-68
2023/05/19 02:27:10;;;;;;;12.30;4.10;;;7.60;99.90;;;;;;5056596;28;20086;-67
2023/05/19 02:29:36;;;;;;;11.15;3.92;;;7.70;99.90;;;;;;5056451;28;20067;-68
2023/05/19 02:32:04;;;;;;;15.02;5.03;;;7.70;99.90;;;;;;5072449;28;20049;-68
2023/05/19 02:34:31;;;;;;;14.93;4.43;;;7.60;99.90;;;;;;5056319;28;20057;-68
2023/05/19 02:37:00;;;;;;;11.00;4.35;;;7.60;99.90;;;;;;5074197;28;20044;-68
2023/05/19 02:39:28;;;;;;;15.95;4.55;;;7.60;99.90;;;;;;5053585;28;20041;-67
2023/05/19 02:41:55;;;;;;;15.90;4.35;;;8.50;99.90;;;;;;5056314;28;20072;-68
2023/05/19 02:44:21;;;;;;;20.63;4.93;;;7.60;99.90;;;;;;5073469;28;20044;-68
2023/05/19 02:46:48;;;;;;;8.88;4.07;;;7.50;99.90;;;;;;5056231;28;20098;-67
2023/05/19 02:49:15;;;;;;;19.42;4.95;;;7.50;99.90;;;;;;5056021;28;20075;-67
2023/05/19 02:51:42;;;;;;;22.73;4.82;;;7.50;99.90;;;;;;5055261;28;20499;-69
2023/05/19 02:54:10;;;;;;;12.55;4.40;;;7.50;99.90;;;;;;5056070;28;20048;-67
2023/05/19 02:56:37;;;;;;;12.20;4.30;;;7.60;99.90;;;;;;5053903;28;20063;-67
2023/05/19 02:59:05;;;;;;;16.40;4.72;;;7.50;99.90;;;;;;5055037;28;20109;-67
2023/05/19 03:01:32;;;;;;;20.48;5.95;;;7.50;99.90;;;;;;5055760;28;20060;-68
2023/05/19 03:03:59;;;;;;;11.43;4.95;;;7.50;99.90;;;;;;5073552;28;20051;-68
2023/05/19 03:06:26;;;;;;;20.00;5.07;;;8.10;99.90;;;;;;5072765;28;20485;-67
2023/05/19 03:08:53;;;;;;;12.20;4.70;;;7.40;99.90;;;;;;5073733;28;20416;-68
2023/05/19 03:11:22;;;;;;;15.27;5.00;;;7.40;99.90;;;;;;5073626;28;20075;-67
2023/05/19 03:13:49;;;;;;;12.35;5.05;;;7.50;99.90;;;;;;5054971;28;20052;-68
2023/05/19 03:16:15;;;;;;;16.90;4.97;;;7.90;99.90;;;;;;5073495;28;20048;-67
2023/05/19 03:18:43;;;;;;;16.25;5.20;;;7.40;99.90;;;;;;5055091;28;20052;-69
2023/05/19 03:21:10;;;;;;;14.15;4.63;;;7.40;99.90;;;;;;5054772;28;20052;-68
2023/05/19 03:23:37;;;;;;;12.32;4.90;;;7.40;99.90;;;;;;5073055;28;20055;-68
2023/05/19 03:26:04;;;;;;;16.45;5.57;;;7.30;99.90;;;;;;5073155;28;20044;-68
2023/05/19 03:28:32;;;;;;;14.68;5.25;;;7.30;99.90;;;;;;5054681;28;20152;-67
2023/05/19 03:30:59;;;;;;;13.32;4.90;;;7.30;99.90;;;;;;5072940;28;20044;-67
2023/05/19 03:33:28;;;;;;;15.57;5.65;;;7.30;99.90;;;;;;5054459;28;20129;-67
2023/05/19 03:35:56;;;;;;;18.55;5.68;;;7.30;99.90;;;;;;5053288;28;20079;-67
2023/05/19 03:38:23;;;;;;;20.10;6.22;;;7.30;99.90;;;;;;5072913;28;20044;-68
2023/05/19 03:40:50;;;;;;;16.63;6.00;;;7.50;99.90;;;;;;5054662;28;20056;-68
2023/05/19 03:43:17;;;;;;;11.65;4.90;;;8.20;99.90;;;;;;5054619;28;20523;-67
2023/05/19 03:45:46;;;;;;;15.45;5.40;;;7.30;99.90;;;;;;5055047;28;20041;-68
2023/05/19 03:48:14;;;;;;;18.42;5.55;;;7.40;99.90;;;;;;5072298;28;20040;-67
2023/05/19 03:50:43;;;;;;;19.45;6.88;;;7.40;99.90;;;;;;5055134;28;20473;-67
2023/05/19 03:53:10;;;;;;;20.35;5.80;;;7.50;99.90;;;;;;5053294;28;20056;-68
2023/05/19 03:55:37;;;;;;;20.63;6.68;;;7.40;99.90;;;;;;5054371;28;20094;-69
2023/05/19 03:58:04;;;;;;;17.88;6.60;;;7.40;99.90;;;;;;5072531;28;20409;-68
2023/05/19 04:00:31;;;;;;;15.25;7.03;;;7.50;99.90;;;;;;5054763;28;20064;-67
2023/05/19 04:03:00;;;;;;;21.90;6.72;;;7.50;99.90;;;;;;5054015;28;20067;-68
2023/05/19 04:05:26;;;;;;;15.07;5.95;;;7.50;99.90;;;;;;5054752;28;20110;-67
2023/05/19 04:07:53;;;;;;;17.40;6.22;;;7.60;99.90;;;;;;5072387;28;20056;-68
2023/05/19 04:10:21;;;;;;;14.13;5.97;;;7.60;99.90;;;;;;5053964;28;20044;-68
2023/05/19 04:12:48;;;;;;;15.70;5.85;;;7.60;99.90;;;;;;5054632;28;20052;-68
2023/05/19 04:15:15;;;;;;;16.50;6.10;;;7.70;99.90;;;;;;5072675;28;20056;-67
2023/05/19 04:17:42;;;;;;;14.95;6.57;;;7.70;99.90;;;;;;5053583;28;20060;-67
2023/05/19 04:20:12;;;;;;;16.30;6.57;;;7.70;99.90;;;;;;5072070;28;20040;-68
2023/05/19 04:22:39;;;;;;;18.08;5.88;;;7.80;99.90;;;;;;5051509;28;20500;-68
2023/05/19 04:25:07;;;;;;;17.08;5.72;;;7.80;99.90;;;;;;5065865;28;20105;-69
2023/05/19 04:27:37;;;;;;;18.17;6.25;;;7.90;99.90;;;;;;5065714;28;20048;-70
2023/05/19 04:30:05;;;;;;;20.00;5.28;;;8.10;99.90;;;;;;5051537;28;20084;-69
2023/05/19 04:32:32;;;;;;;17.70;6.22;;;8.20;99.90;;;;;;5050987;28;20389;-69
2023/05/19 04:34:59;;;;;;;19.00;6.25;;;8.30;99.90;;;;;;5069713;28;20516;-69
2023/05/19 04:37:28;;;;;;;17.27;6.13;;;8.40;99.90;;;;;;5053069;28;20059;-69
2023/05/19 04:39:55;;;;;;;15.48;5.85;;;8.50;99.90;;;;;;5051782;28;20052;-69
2023/05/19 04:42:24;;;;;;;19.70;6.00;;;9.30;99.90;;;;;;5052735;28;20131;-69
2023/05/19 04:44:51;;;;;;;16.98;6.15;;;8.60;99.90;;;;;;5069580;28;20048;-68
2023/05/19 04:47:20;;;;;;;13.32;5.60;;;8.70;99.90;;;;;;5052084;28;20041;-69
2023/05/19 04:49:47;;;;;;;13.90;5.78;;;9.50;99.90;;;;;;5050554;28;20156;-69
2023/05/19 04:52:14;;;;;;;16.58;4.88;;;8.90;99.90;;;;;;5051951;28;20543;-70
2023/05/19 04:54:43;;;;;;;11.48;5.40;;;9.00;99.90;;;;;;5069740;28;20052;-70
2023/05/19 04:57:11;;;;;;;22.38;6.60;;;9.10;99.90;;;;;;5056603;28;21909;-70
2023/05/19 04:59:38;;;;;;;13.15;5.13;;;9.20;99.90;;;;;;5056671;28;20127;-69
2023/05/19 05:02:05;;;;;;;16.27;5.60;;;9.50;99.90;;;;;;5073877;28;20044;-70
2023/05/19 05:04:32;;;;;;;17.63;6.45;;;9.40;99.90;;;;;;5055297;28;20052;-70
2023/05/19 05:07:00;;;;;;;15.50;6.43;;;9.50;99.90;;;;;;5054040;28;20045;-69
2023/05/19 05:09:26;;;;;;;11.98;5.50;;;9.70;99.90;;;;;;5075170;28;20044;-69
2023/05/19 05:11:55;;;;;;;17.13;5.07;;;9.90;99.90;;;;;;5055633;28;20151;-69
2023/05/19 05:14:23;;;;;;;12.07;6.00;;;10.00;99.90;;;;;;5055156;28;20511;-70
2023/05/19 05:16:50;;;;;;;14.00;5.38;;;10.10;99.90;;;;;;5073703;28;20055;-70
2023/05/19 05:19:18;;;;;;;15.60;5.78;;;10.30;99.90;;;;;;5054333;28;20052;-69
2023/05/19 05:21:46;;;;;;;12.73;5.40;;;10.50;99.90;;;;;;5053702;28;20590;-69
2023/05/19 05:24:14;;;;;;;15.98;6.25;;;10.70;99.90;;;;;;5055438;28;20148;-68
2023/05/19 05:26:41;;;;;;;11.35;5.18;;;10.80;99.90;;;;;;5053908;28;20106;-69
2023/05/19 05:29:10;;;;;;;12.02;4.60;;;11.00;99.90;;;;;;5074839;28;20041;-69
2023/05/19 05:31:37;;;;;;;15.73;5.22;;;11.20;99.90;;;;;;5054911;28;20056;-68
2023/05/19 05:34:03;;;;;;;17.38;4.60;;;11.50;99.90;;;;;;5068764;28;20393;-68
2023/05/19 05:36:30;;;;;;;9.85;4.50;;;11.70;99.90;;;;;;5053082;28;20057;-69
2023/05/19 05:38:58;;;;;;;13.70;5.30;;;11.70;99.90;;;;;;5054058;28;20076;-69
2023/05/19 05:41:26;;;;;;;11.30;5.70;;;11.70;99.90;;;;;;5073396;28;20052;-69
2023/05/19 05:43:53;;;;;;;12.48;5.30;;;11.70;99.90;;;;;;5053314;28;20182;-69
2023/05/19 05:46:21;;;;;;;10.98;5.95;;;11.80;99.90;;;;;;5055969;28;20051;-68
2023/05/19 05:48:48;;;;;;;11.25;4.60;;;11.90;99.90;;;;;;5055329;28;20056;-68
2023/05/19 05:51:16;;;;;;;9.63;4.60;;;12.10;99.90;;;;;;5072896;28;20048;-68
2023/05/19 05:53:48;;;;;;;8.88;4.72;;;12.20;99.90;;;;;;5071456;28;20458;-68
2023/05/19 05:56:16;;;;;;;11.02;5.00;;;12.30;99.90;;;;;;5054712;28;20063;-68
2023/05/19 05:58:43;;;;;;;14.55;4.65;;;12.40;99.90;;;;;;5070754;28;20045;-68
2023/05/19 06:01:10;;;;;;;10.50;4.88;;;12.50;99.90;;;;;;5067543;28;20523;-69
2023/05/19 06:03:39;;;;;;;9.02;4.22;;;12.60;99.90;;;;;;5051448;28;20404;-68
2023/05/19 06:06:07;;;;;;;12.02;4.60;;;13.00;99.90;;;;;;5070351;28;20056;-69
2023/05/19 06:08:33;;;;;;;8.27;4.50;;;13.10;99.90;;;;;;5070959;28;20070;-69
2023/05/19 06:11:06;;;;;;;9.18;4.13;;;13.10;99.90;;;;;;5055559;28;20049;-69
2023/05/19 06:13:33;;;;;;;8.27;4.30;;;13.20;99.90;;;;;;5054083;28;20125;-69
2023/05/19 06:16:00;;;;;;;12.43;3.67;;;13.20;99.90;;;;;;5071523;28;20044;-69
2023/05/19 06:18:27;;;;;;;8.05;4.28;;;13.50;99.90;;;;;;5069172;28;20140;-69
2023/05/19 06:20:56;;;;;;;14.40;4.57;;;13.70;99.90;;;;;;5070147;28;20049;-69
2023/05/19 06:23:24;;;;;;;9.70;3.88;;;13.90;99.90;;;;;;5070393;28;20522;-70
2023/05/19 06:25:51;;;;;;;9.55;4.13;;;14.10;99.90;;;;;;5054144;28;20618;-69
2023/05/19 06:28:18;;;;;;;9.00;3.78;;;14.40;99.90;;;;;;5052131;28;20055;-69
2023/05/19 06:30:44;;;;;;;8.27;4.03;;;14.60;99.90;;;;;;5070817;28;20037;-69
2023/05/19 06:33:11;;;;;;;11.55;4.32;;;14.70;99.90;;;;;;5050289;28;20052;-70
2023/05/19 06:35:38;;;;;;;10.88;4.30;;;14.90;99.90;;;;;;5053223;28;20052;-70
2023/05/19 06:38:07;;;;;;;11.90;5.25;;;15.10;99.90;;;;;;5071540;28;20045;-69
2023/05/19 06:40:34;;;;;;;10.98;4.55;;;15.40;99.90;;;;;;5053917;28;20052;-69
2023/05/19 06:43:01;;;;;;;10.38;4.13;;;15.50;99.90;;;;;;5054182;28;20082;-71
2023/05/19 06:45:28;;;;;;;10.30;4.32;;;15.70;99.90;;;;;;5052011;28;20452;-67
2023/05/19 06:47:57;;;;;;;12.88;4.28;;;15.90;99.90;;;;;;5051959;28;20055;-68
2023/05/19 06:50:24;;;;;;;10.13;4.03;;;16.60;99.90;;;;;;5069716;28;20476;-68
2023/05/19 06:52:51;;;;;;;5.95;3.45;;;16.40;99.90;;;;;;5071933;28;20052;-67
2023/05/19 06:55:19;;;;;;;8.63;3.47;;;16.50;99.90;;;;;;5052077;28;20052;-67
2023/05/19 06:57:46;;;;;;;7.10;2.90;;;16.80;99.90;;;;;;5051247;28;20792;-68
2023/05/19 07:00:15;;;;;;;7.97;2.72;;;17.10;99.90;;;;;;5068891;28;20048;-68
2023/05/19 07:02:42;;;;;;;9.50;3.40;;;17.50;99.90;;;;;;5054680;28;20457;-68
2023/05/19 07:05:09;;;;;;;7.28;2.80;;;17.90;99.90;;;;;;5068367;28;20044;-67
2023/05/19 07:07:36;;;;;;;9.93;3.70;;;18.00;99.90;;;;;;5072112;28;20393;-69
2023/05/19 07:10:04;;;;;;;11.38;3.50;;;18.10;99.30;;;;;;5053900;28;20422;-69
2023/05/19 07:12:32;;;;;;;8.82;3.70;;;18.40;99.30;;;;;;5053291;28;20101;-69
2023/05/19 07:14:59;;;;;;;5.82;3.03;;;18.60;98.60;;;;;;5054146;28;20056;-68
2023/05/19 07:17:26;;;;;;;6.25;2.85;;;19.00;96.10;;;;;;5053212;28;20143;-69
2023/05/19 07:19:53;;;;;;;6.25;2.58;;;19.00;93.30;;;;;;5053725;28;20507;-69
2023/05/19 07:22:21;;;;;;;9.15;2.72;;;19.20;94.60;;;;;;5052719;28;20055;-68
2023/05/19 07:24:47;;;;;;;7.80;2.88;;;19.60;94.10;;;;;;5053364;28;20444;-68
2023/05/19 07:27:14;;;;;;;7.22;2.72;;;19.90;93.60;;;;;;5050475;28;20048;-69
2023/05/19 07:29:43;;;;;;;5.13;2.30;;;20.00;91.10;;;;;;5072253;28;20052;-69
2023/05/19 07:32:09;;;;;;;11.38;2.95;;;20.10;89.60;;;;;;5052190;28;20053;-68
2023/05/19 07:34:36;;;;;;;4.88;2.40;;;20.30;90.80;;;;;;5071717;28;20048;-68
2023/05/19 07:37:03;;;;;;;4.63;2.45;;;20.50;90.40;;;;;;5052827;28;20098;-69
2023/05/19 07:39:31;;;;;;;6.90;2.60;;;21.00;88.10;;;;;;5072008;28;20040;-70
2023/05/19 07:41:58;;;;;;;10.80;2.60;;;21.20;89.80;;;;;;5051013;28;20503;-70
2023/05/19 07:44:25;;;;;;;4.80;2.10;;;21.70;90.40;;;;;;5051917;28;20045;-69
2023/05/19 07:46:54;;;;;;;5.35;2.00;;;21.60;89.20;;;;;;5068559;28;20048;-70
2023/05/19 07:49:21;;;;;;;8.27;2.42;;;21.80;86.20;;;;;;5052590;28;20205;-70
2023/05/19 07:51:48;;;;;;;8.48;2.63;;;21.80;86.80;;;;;;5070040;28;20098;-71
2023/05/19 07:54:15;;;;;;;7.63;2.40;;;21.90;84.70;;;;;;5051843;28;20447;-69
2023/05/19 07:56:42;;;;;;;5.05;2.22;;;22.00;84.20;;;;;;5070594;28;20128;-69
2023/05/19 07:59:09;;;;;;;7.50;2.47;;;22.00;82.80;;;;;;5069503;28;20048;-70
2023/05/19 08:01:36;;;;;;;5.78;1.85;;;22.00;81.70;;;;;;5070559;28;20052;-70
2023/05/19 08:04:05;;;;;;;7.53;2.40;;;22.00;80.90;;;;;;5068309;28;20059;-70
2023/05/19 08:06:32;;;;;;;4.55;2.15;;;22.10;80.20;;;;;;5071543;28;20086;-69
2023/05/19 08:08:58;;;;;;;5.90;2.28;;;22.20;75.60;;;;;;5050780;28;20059;-69
2023/05/19 08:11:26;;;;;;;4.82;2.08;;;22.50;77.50;;;;;;5050307;28;20444;-70
2023/05/19 08:13:53;;;;;;;7.40;2.58;;;22.60;77.90;;;;;;5053430;28;20048;-69
2023/05/19 08:16:20;;;;;;;5.53;2.38;;;23.00;77.00;;;;;;5050481;28;20052;-70
2023/05/19 08:18:47;;;;;;;5.10;2.05;;;23.10;76.40;;;;;;5069081;28;20052;-70
2023/05/19 08:21:15;;;;;;;4.80;1.95;;;23.00;76.80;;;;;;5068659;28;20044;-69
2023/05/19 08:23:42;;;;;;;5.63;2.40;;;23.00;76.30;;;;;;5050674;28;20060;-69
2023/05/19 08:26:09;;;;;;;4.88;2.20;;;22.70;73.70;;;;;;5068553;28;20489;-69
2023/05/19 08:28:36;;;;;;;5.82;2.10;;;22.80;75.90;;;;;;5053012;28;20053;-70
2023/05/19 08:31:03;;;;;;;8.65;2.33;;;22.90;75.50;;;;;;5070474;28;20040;-70
2023/05/19 08:33:30;;;;;;;5.38;2.00;;;23.40;76.90;;;;;;5051063;28;20053;-70
2023/05/19 08:35:57;;;;;;;5.63;2.30;;;23.20;72.90;;;;;;5053101;28;20052;-70
2023/05/19 08:38:26;;;;;;;7.68;2.95;;;23.60;74.30;;;;;;5051516;28;20052;-70
2023/05/19 08:40:53;;;;;;;7.90;2.90;;;23.60;74.60;;;;;;5068586;28;20040;-70
2023/05/19 08:43:20;;;;;;;4.78;2.28;;;23.70;75.30;;;;;;5049899;28;20121;-70
2023/05/19 08:45:47;;;;;;;5.10;2.28;;;23.70;74.90;;;;;;5067487;28;20044;-71
2023/05/19 08:48:16;;;;;;;7.80;2.63;;;23.80;74.70;;;;;;5052478;28;20137;-69
2023/05/19 08:50:57;;;;;;;5.43;2.47;;;24.00;74.40;;;;;;5067556;28;20094;-70
2023/05/19 08:53:30;;;;;;;8.52;2.70;;;24.10;75.20;;;;;;5052201;28;20313;-69
2023/05/19 08:56:08;;;;;;;16.80;3.33;;;24.40;74.50;;;;;;5067609;28;20044;-69
2023/05/19 08:58:37;;;;;;;6.55;2.55;;;24.20;73.80;;;;;;5067361;28;20446;-69
2023/05/19 09:01:05;;;;;;;11.47;3.37;;;24.50;74.40;;;;;;5049742;28;20048;-69
2023/05/19 09:03:36;;;;;;;7.07;2.67;;;24.60;74.70;;;;;;5052828;28;20372;-70
2023/05/19 09:06:05;;;;;;;6.88;2.53;;;24.50;74.00;;;;;;5051128;28;20115;-70
2023/05/19 09:08:34;;;;;;;10.35;2.55;;;24.60;74.00;;;;;;5050268;28;20052;-71
2023/05/19 09:11:00;;;;;;;10.57;2.63;;;24.20;72.30;;;;;;5047596;28;20044;-70
2023/05/19 09:13:28;;;;;;;7.40;2.75;;;24.30;73.10;;;;;;5049505;28;20519;-70
2023/05/19 09:15:56;;;;;;;6.10;2.50;;;24.40;73.60;;;;;;5048607;28;20045;-71
2023/05/19 09:18:25;;;;;;;4.93;2.35;;;24.60;72.80;;;;;;5068566;28;20044;-70
2023/05/19 09:20:58;;;;;;;5.93;2.42;;;24.50;71.70;;;;;;5069059;28;20564;-70
2023/05/19 09:23:28;;;;;;;7.15;3.10;;;24.90;73.00;;;;;;5051635;28;20481;-71
2023/05/19 09:25:57;;;;;;;3.75;2.20;;;25.20;71.60;;;;;;5068245;28;20072;-69
2023/05/19 09:28:25;;;;;;;5.55;2.50;;;25.10;71.80;;;;;;5050373;28;20060;-70
2023/05/19 09:31:02;;;;;;;6.40;2.50;;;25.10;70.90;;;;;;5070603;28;20049;-70
2023/05/19 09:33:30;;;;;;;6.47;2.40;;;25.10;69.60;;;;;;5065996;28;20106;-70
2023/05/19 09:35:57;;;;;;;6.72;2.30;;;24.80;69.90;;;;;;5052583;28;20056;-71
2023/05/19 09:38:25;;;;;;;7.65;2.58;;;24.70;70.60;;;;;;5048118;28;20053;-70
2023/05/19 09:40:53;;;;;;;6.15;2.53;;;25.20;70.50;;;;;;5049055;28;20072;-69
2023/05/19 09:43:21;;;;;;;6.07;2.20;;;25.10;69.50;;;;;;5071162;28;20056;-70
2023/05/19 09:45:48;;;;;;;4.97;2.17;;;25.40;68.70;;;;;;5073837;28;20044;-70
2023/05/19 09:48:15;;;;;;;5.20;2.20;;;25.50;69.30;;;;;;5047426;28;20488;-70
2023/05/19 09:50:45;;;;;;;6.03;2.30;;;25.00;67.80;;;;;;5055821;28;20113;-69
2023/05/19 09:53:14;;;;;;;7.22;2.35;;;25.00;68.10;;;;;;5053576;28;20084;-69
2023/05/19 09:55:41;;;;;;;5.72;2.17;;;25.00;67.30;;;;;;5071694;28;20056;-70
2023/05/19 09:58:09;;;;;;;6.10;1.90;;;24.90;67.60;;;;;;5073071;28;20044;-70
2023/05/19 10:00:38;;;;;;;7.13;2.25;;;25.00;67.10;;;;;;5070085;28;20055;-70
2023/05/19 10:03:06;;;;;;;5.55;2.40;;;24.80;67.70;;;;;;5055526;28;20041;-70
2023/05/19 10:05:33;;;;;;;7.47;2.58;;;25.00;67.80;;;;;;5072013;28;20416;-69
2023/05/19 10:08:09;;;;;;;5.03;2.35;;;24.90;68.40;;;;;;5072626;28;20049;-70
2023/05/19 10:10:37;;;;;;;5.78;2.47;;;25.10;68.30;;;;;;5070645;28;20128;-69
2023/05/19 10:13:05;;;;;;;6.13;1.85;;;25.30;68.40;;;;;;5054261;28;20088;-69
2023/05/19 10:15:35;;;;;;;5.60;2.50;;;25.50;67.10;;;;;;5051924;28;20056;-70
2023/05/19 10:18:04;;;;;;;5.35;2.10;;;25.70;67.10;;;;;;5073213;28;20052;-70
2023/05/19 10:20:33;;;;;;;7.22;2.15;;;25.40;65.30;;;;;;5054247;28;20420;-70
2023/05/19 10:23:01;;;;;;;6.55;2.60;;;25.60;67.20;;;;;;5055010;28;20060;-69
2023/05/19 10:25:31;;;;;;;10.23;2.63;;;25.60;67.60;;;;;;5053974;28;20545;-70
2023/05/19 10:28:03;;;;;;;6.22;2.40;;;25.40;66.20;;;;;;5055486;28;20082;-70
2023/05/19 10:30:35;;;;;;;6.47;2.10;;;25.50;64.90;;;;;;5071041;28;20439;-70
2023/05/19 10:33:09;;;;;;;4.20;1.90;;;25.50;67.10;;;;;;5051772;28;20052;-72
2023/05/19 10:36:07;;;;;;;4.93;2.00;;;25.70;62.60;;;;;;5053899;28;20048;-71
2023/05/19 10:38:41;;;;;;;4.20;1.73;;;26.30;58.20;;;;;;5053894;28;20056;-70
2023/05/19 10:41:17;;;;;;;4.80;2.08;;;26.50;59.90;;;;;;5070443;28;20120;-70
2023/05/19 10:43:54;;;;;;;4.22;1.98;;;26.20;61.30;;;;;;5051019;28;20052;-69
2023/05/19 10:46:25;;;;;;;6.55;2.50;;;25.70;64.20;;;;;;5055260;28;20060;-70
2023/05/19 10:48:54;;;;;;;6.72;2.50;;;25.30;65.00;;;;;;5054381;28;20055;-71
2023/05/19 10:51:21;;;;;;;5.50;2.00;;;24.90;66.20;;;;;;5054623;28;20495;-70
2023/05/19 10:53:49;;;;;;;5.35;1.70;;;24.70;64.40;;;;;;5068521;28;20056;-69
2023/05/19 10:56:35;;;;;;;3.78;1.67;;;25.10;62.10;;;;;;5055209;28;20048;-70
2023/05/19 10:59:03;;;;;;;5.32;2.30;;;25.30;59.90;;;;;;5053546;28;20049;-70
2023/05/19 11:01:31;;;;;;;7.65;2.15;;;25.40;60.70;;;;;;5054620;28;20052;-69
2023/05/19 11:04:09;;;;;;;4.57;2.08;;;25.30;61.20;;;;;;5073384;28;20044;-70
2023/05/19 11:06:36;;;;;;;6.07;2.05;;;25.10;59.90;;;;;;5054693;28;20076;-71
2023/05/19 11:09:12;;;;;;;5.65;1.90;;;24.90;60.00;;;;;;5073728;28;20049;-69
2023/05/19 11:11:47;;;;;;;4.28;1.67;;;25.50;60.00;;;;;;5070702;28;20040;-69
2023/05/19 11:14:19;;;;;;;6.35;2.28;;;25.70;57.90;;;;;;5073612;28;20098;-69
2023/05/19 11:16:48;;;;;;;7.15;2.15;;;26.00;61.30;;;;;;5055470;28;20049;-70
2023/05/19 11:19:26;;;;;;;4.68;1.63;;;26.10;60.90;;;;;;5052447;28;20093;-70
2023/05/19 11:21:54;;;;;;;4.80;1.98;;;26.40;59.30;;;;;;5054878;28;20040;-71
2023/05/19 11:24:35;;;;;;;6.60;2.28;;;26.20;59.30;;;;;;5054972;28;20060;-70
2023/05/19 11:27:17;;;;;;;5.72;1.65;;;26.60;59.50;;;;;;5072459;28;20563;-70
2023/05/19 11:29:44;;;;;;;4.50;1.95;;;26.10;57.70;;;;;;5088302;28;20080;-70
2023/05/19 11:32:12;;;;;;;3.85;1.52;;;26.10;59.10;;;;;;5054441;28;20419;-69
2023/05/19 11:34:41;;;;;;;6.30;2.03;;;26.00;59.30;;;;;;5072201;28;20044;-70
2023/05/19 11:37:08;;;;;;;7.47;2.75;;;26.10;59.10;;;;;;5055044;28;20451;-70
2023/05/19 11:39:35;;;;;;;6.45;2.00;;;26.20;58.40;;;;;;5054219;28;20052;-71
2023/05/19 11:42:03;;;;;;;5.18;2.08;;;26.30;59.50;;;;;;5054952;28;20049;-70
2023/05/19 11:44:30;;;;;;;4.63;1.77;;;26.60;60.50;;;;;;5053027;28;20044;-70
2023/05/19 11:46:58;;;;;;;4.50;1.92;;;26.60;60.00;;;;;;5054533;28;20485;-70
2023/05/19 11:49:25;;;;;;;5.60;1.95;;;26.90;61.20;;;;;;5055194;28;20071;-71
2023/05/19 11:51:54;;;;;;;8.07;2.17;;;27.20;61.30;;;;;;5072654;28;20489;-70
2023/05/19 11:54:21;;;;;;;3.90;1.88;;;27.10;60.20;;;;;;5054041;28;20056;-71
2023/05/19 11:56:48;;;;;;;5.25;2.05;;;26.90;60.00;;;;;;5054976;28;20129;-70
2023/05/19 11:59:15;;;;;;;4.82;1.95;;;26.70;59.60;;;;;;5072605;28;20044;-70
2023/05/19 12:01:41;;;;;;;6.53;2.10;;;26.50;58.90;;;;;;5071925;28;20044;-71
2023/05/19 12:04:09;;;;;;;6.97;1.85;;;26.10;60.00;;;;;;5054315;28;20053;-70
2023/05/19 12:06:36;;;;;;;3.13;1.75;;;25.80;63.00;;;;;;5072232;28;20542;-70
2023/05/19 12:09:05;;;;;;;5.13;1.88;;;25.30;61.80;;;;;;5053831;28;20512;-69
2023/05/19 12:11:32;;;;;;;5.53;2.30;;;25.50;63.00;;;;;;5054745;28;20507;-69
2023/05/19 12:13:59;;;;;;;5.50;2.30;;;25.70;63.00;;;;;;5054453;28;20109;-70
2023/05/19 12:16:34;;;;;;;5.68;2.45;;;25.80;62.10;;;;;;5054016;28;20056;-69
2023/05/19 12:19:01;;;;;;;7.68;2.30;;;25.80;60.70;;;;;;5072210;28;20540;-71
2023/05/19 12:21:28;;;;;;;6.55;2.00;;;26.00;61.70;;;;;;5053675;28;20409;-70
2023/05/19 12:23:55;;;;;;;7.32;2.22;;;26.00;60.10;;;;;;5053641;28;20057;-69
2023/05/19 12:26:23;;;;;;;6.40;2.15;;;26.30;61.80;;;;;;5053661;28;20089;-70
2023/05/19 12:28:51;;;;;;;4.43;1.80;;;26.60;61.70;;;;;;5067791;28;20179;-70
2023/05/19 12:31:18;;;;;;;6.22;1.80;;;26.80;61.70;;;;;;5063504;28;20069;-70
2023/05/19 12:33:50;;;;;;;8.82;1.88;;;27.20;61.50;;;;;;5051747;28;20177;-70
2023/05/19 12:36:17;;;;;;;6.72;2.28;;;27.00;59.20;;;;;;5052550;28;20131;-71
2023/05/19 12:38:44;;;;;;;6.18;2.10;;;27.00;59.90;;;;;;5049801;28;20044;-70
2023/05/19 12:41:12;;;;;;;6.45;2.05;;;27.30;61.80;;;;;;5052395;28;20093;-70
2023/05/19 12:43:41;;;;;;;5.00;2.00;;;27.50;60.60;;;;;;5069063;28;20055;-67
2023/05/19 12:46:11;;;;;;;4.32;2.03;;;27.90;59.10;;;;;;5051412;28;20052;-70
2023/05/19 12:48:41;;;;;;;5.60;1.75;;;27.70;58.70;;;;;;5050358;28;20056;-70
2023/05/19 12:51:08;;;;;;;;;;;27.50;58.70;;;;;;5071658;28;20090;-70
2023/05/19 12:53:36;;;;;;;6.75;2.40;;;27.30;59.80;;;;;;5064642;28;19924;-70